Austin (LCRA Redbud)'s Hourly Summary for Monday, July 9, 2018
Hour Temp
(f)
RH
(%)
Solar Rad.
(MJ/m2)
Rainfall
(in)
Wind
(mph)
7/9/2018 12:00 AM 75 94 0 0 0
7/9/2018 1:00 AM 75 89 0 0 0.2
7/9/2018 2:00 AM 75 86 0 0 0.63
7/9/2018 3:00 AM 74 92 0 0 0.23
7/9/2018 4:00 AM 73 95 0 0 0
7/9/2018 5:00 AM 72 97 0 0 0
7/9/2018 6:00 AM 72 97 0 0.01 0
7/9/2018 7:00 AM 73 97 0 0.99 0.09
7/9/2018 8:00 AM 73 99 0.04 0.17 1.42
7/9/2018 9:00 AM 73 100 0.1 0.01 0.06
7/9/2018 10:00 AM 74 100 0.25 0.01 0.35
7/9/2018 11:00 AM 78 100 1 0 0.22
7/9/2018 12:00 PM 78 91 1.89 0.22 0.16
7/9/2018 1:00 PM 77 95 0.23 0.05 0.5
7/9/2018 2:00 PM 74 97 0.35 0.02 0.02
7/9/2018 3:00 PM 75 97 0.3 0.02 0.29
7/9/2018 4:00 PM 76 96 0.42 0 0.11
7/9/2018 5:00 PM 77 88 0.65 0 0.44
7/9/2018 6:00 PM 77 86 0.61 0 0.16
7/9/2018 7:00 PM 77 84 0.59 0 0.51
7/9/2018 8:00 PM 76 90 0.19 0 0.77
7/9/2018 9:00 PM 74 94 0.01 0 0.02
7/9/2018 10:00 PM 73 96 0 0 0
7/9/2018 11:00 PM 72 96 0 0 0
Data Summary 74 94 6.63 1.50 0.26